createdAt,value
2022-09-06T00:02:13.164Z,67.90
2022-09-06T00:04:41.036Z,67.29
2022-09-06T00:07:08.842Z,67.87
2022-09-06T00:09:36.645Z,67.56
2022-09-06T00:12:04.788Z,68.03
2022-09-06T00:14:32.649Z,68.51
2022-09-06T00:17:00.477Z,68.11
2022-09-06T00:19:29.653Z,67.82
2022-09-06T00:21:57.491Z,67.84
2022-09-06T00:24:25.485Z,67.18
2022-09-06T00:26:53.295Z,66.91
2022-09-06T00:29:21.169Z,66.81
2022-09-06T00:31:48.997Z,66.67
2022-09-06T00:34:16.870Z,66.64
2022-09-06T00:36:46.014Z,67.05
2022-09-06T00:39:13.845Z,67.54
2022-09-06T00:41:41.820Z,67.58
2022-09-06T00:44:09.634Z,67.60
2022-09-06T00:46:40.787Z,67.41
2022-09-06T00:49:12.135Z,67.93
2022-09-06T00:51:41.238Z,68.05
2022-09-06T00:54:10.887Z,68.49
2022-09-06T00:56:43.140Z,68.55
2022-09-06T00:59:11.314Z,68.85
2022-09-06T01:01:39.367Z,69.51
2022-09-06T01:04:07.838Z,70.12
2022-09-06T01:06:45.868Z,70.45
2022-09-06T01:09:25.432Z,70.84
2022-09-06T01:12:05.820Z,70.76
2022-09-06T01:14:45.740Z,70.88
2022-09-06T01:17:22.837Z,70.72
2022-09-06T01:20:19.203Z,70.77
2022-09-06T01:23:13.632Z,70.51
2022-09-06T01:25:59.908Z,70.57
2022-09-06T01:28:34.253Z,70.37
2022-09-06T01:31:25.350Z,70.41
2022-09-06T01:34:12.255Z,70.45
2022-09-06T01:37:08.585Z,70.51
2022-09-06T01:39:37.109Z,70.10
2022-09-06T01:42:09.010Z,69.48
2022-09-06T01:44:42.170Z,69.36
2022-09-06T01:47:21.037Z,69.06
2022-09-06T01:50:01.613Z,69.39
2022-09-06T01:52:36.768Z,68.67
2022-09-06T01:55:17.829Z,68.99
2022-09-06T01:58:09.735Z,69.04
2022-09-06T02:00:47.709Z,68.95
2022-09-06T02:03:26.037Z,68.73
2022-09-06T02:05:59.159Z,68.36
2022-09-06T02:08:32.423Z,68.65
2022-09-06T02:11:02.875Z,68.84
2022-09-06T02:13:34.380Z,69.06
2022-09-06T02:16:05.992Z,68.88
2022-09-06T02:18:40.349Z,69.07
2022-09-06T02:21:11.358Z,69.40
2022-09-06T02:23:41.339Z,69.29
2022-09-06T02:26:13.953Z,69.72
2022-09-06T02:28:41.962Z,70.16
2022-09-06T02:31:16.087Z,70.15
2022-09-06T02:33:47.089Z,70.64
2022-09-06T02:36:15.803Z,70.89
2022-09-06T02:38:45.089Z,70.96
2022-09-06T02:41:15.172Z,70.62
2022-09-06T02:43:43.977Z,70.60
2022-09-06T02:46:13.703Z,70.64
2022-09-06T02:48:41.665Z,70.55
2022-09-06T02:51:10.730Z,70.24
2022-09-06T02:53:39.411Z,70.58
2022-09-06T02:56:07.724Z,70.85
2022-09-06T02:58:35.996Z,70.51
2022-09-06T03:01:04.028Z,70.14
2022-09-06T03:03:33.318Z,69.51
2022-09-06T03:06:01.201Z,69.00
2022-09-06T03:08:33.365Z,68.92
2022-09-06T03:11:02.147Z,68.78
2022-09-06T03:13:30.032Z,68.74
2022-09-06T03:15:59.832Z,68.37
2022-09-06T03:18:29.624Z,68.08
2022-09-06T03:20:59.543Z,67.93
2022-09-06T03:23:29.451Z,67.83
2022-09-06T03:25:57.909Z,67.78
2022-09-06T03:28:25.962Z,67.67
2022-09-06T03:30:54.240Z,67.68
2022-09-06T03:33:22.718Z,67.77
2022-09-06T03:35:52.033Z,67.98
2022-09-06T03:38:21.897Z,68.01
2022-09-06T03:40:50.288Z,68.46
2022-09-06T03:43:18.827Z,69.08
2022-09-06T03:45:47.766Z,69.26
2022-09-06T03:48:16.542Z,69.43
2022-09-06T03:50:46.917Z,69.23
2022-09-06T03:53:15.824Z,69.29
2022-09-06T03:55:47.339Z,69.02
2022-09-06T03:58:15.413Z,68.90
2022-09-06T04:00:43.437Z,69.05
2022-09-06T04:03:11.763Z,69.85
2022-09-06T04:05:39.656Z,70.15
2022-09-06T04:08:07.785Z,70.66
2022-09-06T04:10:35.597Z,70.54
2022-09-06T04:13:04.880Z,69.96
2022-09-06T04:15:32.799Z,69.38
2022-09-06T04:18:00.735Z,69.44
2022-09-06T04:20:28.565Z,70.15
2022-09-06T04:22:56.430Z,70.85
2022-09-06T04:25:24.298Z,70.60
2022-09-06T04:27:52.154Z,70.13
2022-09-06T04:30:21.364Z,69.84
2022-09-06T04:32:49.227Z,69.47
2022-09-06T04:35:17.189Z,69.70
2022-09-06T04:37:45.106Z,69.38
2022-09-06T04:40:13.443Z,69.87
2022-09-06T04:42:41.357Z,70.23
2022-09-06T04:45:10.417Z,70.62
2022-09-06T04:47:39.865Z,70.44
2022-09-06T04:50:08.810Z,70.91
2022-09-06T04:52:36.697Z,70.77
2022-09-06T04:55:05.379Z,70.77
2022-09-06T04:57:33.353Z,70.88
2022-09-06T05:00:01.346Z,69.95
2022-09-06T05:02:29.501Z,70.91
2022-09-06T05:04:58.909Z,70.50
2022-09-06T05:07:27.460Z,70.18
2022-09-06T05:09:55.433Z,70.13
2022-09-06T05:12:23.399Z,69.61
2022-09-06T05:14:51.364Z,69.02
2022-09-06T05:17:19.247Z,69.26
2022-09-06T05:19:47.856Z,69.03
2022-09-06T05:22:17.122Z,68.26
2022-09-06T05:24:46.365Z,68.30
2022-09-06T05:27:14.332Z,68.08
2022-09-06T05:29:42.210Z,68.01
2022-09-06T05:32:10.155Z,68.13
2022-09-06T05:34:38.036Z,68.10
2022-09-06T05:37:06.092Z,68.00
2022-09-06T05:39:35.492Z,67.92
2022-09-06T05:42:06.646Z,67.99
2022-09-06T05:44:34.937Z,68.19
2022-09-06T05:47:02.939Z,68.42
2022-09-06T05:49:31.260Z,68.55
2022-09-06T05:51:59.389Z,68.45
2022-09-06T05:54:27.278Z,68.52
2022-09-06T05:56:56.426Z,68.22
2022-09-06T05:59:24.308Z,68.20
2022-09-06T06:01:54.012Z,68.43
2022-09-06T06:04:23.017Z,68.13
2022-09-06T06:06:51.215Z,68.07
2022-09-06T06:09:19.161Z,68.19
2022-09-06T06:11:46.992Z,68.70
2022-09-06T06:14:16.172Z,68.38
2022-09-06T06:16:44.111Z,68.04
2022-09-06T06:19:11.985Z,67.96
2022-09-06T06:21:39.816Z,67.56
2022-09-06T06:24:07.956Z,67.83
2022-09-06T06:26:37.241Z,67.41
2022-09-06T06:29:08.193Z,67.41
2022-09-06T06:31:39.152Z,67.27
2022-09-06T06:34:07.313Z,67.13
2022-09-06T06:36:36.621Z,66.92
2022-09-06T06:39:08.363Z,66.66
2022-09-06T06:41:36.485Z,66.38
2022-09-06T06:44:06.089Z,66.41
2022-09-06T06:46:35.660Z,66.29
2022-09-06T06:49:05.296Z,66.27
2022-09-06T06:51:37.031Z,66.39
2022-09-06T06:54:05.358Z,66.14
2022-09-06T06:56:35.005Z,66.11
2022-09-06T06:59:05.138Z,65.67
2022-09-06T07:01:34.162Z,65.20
2022-09-06T07:04:02.208Z,64.58
2022-09-06T07:09:21.441Z,63.52
2022-09-06T07:11:50.024Z,62.78
2022-09-06T07:14:18.343Z,62.27
2022-09-06T07:16:46.937Z,61.93
2022-09-06T07:22:05.763Z,61.54
2022-09-06T07:24:34.247Z,61.45
2022-09-06T07:29:49.894Z,60.27
2022-09-06T07:32:17.712Z,61.11
2022-09-06T07:34:45.549Z,60.30
2022-09-06T07:37:14.730Z,59.98
2022-09-06T07:39:42.679Z,59.60
2022-09-06T07:42:10.632Z,59.05
2022-09-06T07:44:38.459Z,58.64
2022-09-06T07:55:34.033Z,58.14
2022-09-06T07:58:01.873Z,57.87
2022-09-06T08:00:29.823Z,58.11
2022-09-06T08:02:57.679Z,58.07
2022-09-06T08:11:02.593Z,57.48
2022-09-06T08:13:30.515Z,57.28
2022-09-06T08:16:01.625Z,57.36
2022-09-06T08:18:29.573Z,57.38
2022-09-06T08:20:57.393Z,57.36
2022-09-06T08:23:26.533Z,57.38
2022-09-06T08:25:58.504Z,57.60
2022-09-06T08:28:28.798Z,57.47
2022-09-06T08:30:57.171Z,57.32
2022-09-06T08:33:25.637Z,57.27
2022-09-06T08:35:57.236Z,57.51
2022-09-06T08:38:26.670Z,57.53
2022-09-06T08:40:56.167Z,57.62
2022-09-06T08:43:24.178Z,57.78
2022-09-06T08:45:57.342Z,57.86
2022-09-06T08:48:30.407Z,58.08
2022-09-06T08:51:11.903Z,58.09
2022-09-06T08:53:46.416Z,58.41
2022-09-06T08:56:21.135Z,58.60
2022-09-06T08:59:03.933Z,58.72
2022-09-06T09:01:38.994Z,58.69
2022-09-06T09:04:12.663Z,58.82
2022-09-06T09:06:40.506Z,59.07
2022-09-06T09:09:15.939Z,58.80
2022-09-06T09:11:48.185Z,59.34
2022-09-06T09:14:19.909Z,59.41
2022-09-06T09:16:51.376Z,59.87
2022-09-06T09:19:19.229Z,59.96
2022-09-06T09:21:47.273Z,60.15
2022-09-06T09:24:16.921Z,60.48
2022-09-06T09:26:52.102Z,60.45
2022-09-06T09:29:25.367Z,61.02
2022-09-06T09:31:56.460Z,61.47
2022-09-06T09:34:33.597Z,62.19
2022-09-06T09:40:13.843Z,64.56
2022-09-06T09:42:42.003Z,65.68
2022-09-06T09:45:25.349Z,68.92
2022-09-06T09:47:53.462Z,71.11
2022-09-06T09:50:27.991Z,74.66
2022-09-06T09:52:56.368Z,77.73
2022-09-06T09:55:27.352Z,79.95
2022-09-06T09:57:56.254Z,82.57
2022-09-06T10:00:35.910Z,84.19
2022-09-06T10:03:13.245Z,85.56
2022-09-06T10:05:42.444Z,86.56
2022-09-06T10:08:13.319Z,87.35
2022-09-06T10:10:47.471Z,88.18
2022-09-06T10:13:20.194Z,88.73
2022-09-06T10:15:49.856Z,88.80
2022-09-06T10:18:30.709Z,88.64
2022-09-06T10:21:01.901Z,88.73
2022-09-06T10:26:36.272Z,88.70
2022-09-06T10:29:07.037Z,88.53
2022-09-06T10:31:53.205Z,88.27
2022-09-06T10:34:55.762Z,87.65
2022-09-06T10:37:41.537Z,86.64
2022-09-06T10:40:11.898Z,85.46
2022-09-06T10:42:46.860Z,84.23
2022-09-06T10:45:28.374Z,84.28
2022-09-06T10:47:59.505Z,83.91
2022-09-06T10:50:35.536Z,83.14
2022-09-06T10:53:11.582Z,82.87
2022-09-06T10:55:41.200Z,82.52
2022-09-06T11:00:46.722Z,82.04
2022-09-06T11:06:13.936Z,80.68
2022-09-06T11:08:48.084Z,79.78
2022-09-06T11:11:23.178Z,79.14
2022-09-06T11:13:52.365Z,78.94
2022-09-06T11:16:25.774Z,78.80
2022-09-06T11:18:58.960Z,78.31
2022-09-06T11:22:14.413Z,78.17
2022-09-06T11:24:57.481Z,77.03
2022-09-06T11:27:35.753Z,76.42
2022-09-06T11:30:06.843Z,75.77
2022-09-06T11:32:40.064Z,74.92
2022-09-06T11:35:11.192Z,74.34
2022-09-06T11:37:42.871Z,74.40
2022-09-06T11:43:45.407Z,74.79
2022-09-06T11:46:58.607Z,75.05
2022-09-06T11:49:31.780Z,75.34
2022-09-06T11:51:59.873Z,75.59
2022-09-06T11:54:39.178Z,76.40
2022-09-06T11:57:15.364Z,77.21
2022-09-06T11:59:54.961Z,77.31
2022-09-06T12:02:38.990Z,77.34
2022-09-06T12:05:29.263Z,77.49
2022-09-06T12:08:29.084Z,77.84
2022-09-06T12:11:03.029Z,78.55
2022-09-06T12:13:42.668Z,79.02
2022-09-06T12:16:12.212Z,79.22
2022-09-06T12:19:01.461Z,78.94
2022-09-06T12:21:52.341Z,78.37
2022-09-06T12:24:55.903Z,78.10
2022-09-06T12:27:25.345Z,78.95
2022-09-06T12:29:58.035Z,79.26
2022-09-06T12:32:36.200Z,79.65
2022-09-06T12:38:03.751Z,79.87
2022-09-06T12:40:35.213Z,80.15
2022-09-06T12:43:04.774Z,79.98
2022-09-06T12:45:32.909Z,80.21
2022-09-06T12:48:09.807Z,80.65
2022-09-06T12:50:40.412Z,81.29
2022-09-06T12:53:24.381Z,81.21
2022-09-06T12:56:04.342Z,81.17
2022-09-06T12:58:32.504Z,82.01
2022-09-06T13:01:10.173Z,81.54
2022-09-06T13:03:42.269Z,81.84
2022-09-06T13:06:19.627Z,81.97
2022-09-06T13:08:51.576Z,82.12
2022-09-06T13:11:25.228Z,82.29
2022-09-06T13:13:54.865Z,82.32
2022-09-06T13:16:24.632Z,82.13
2022-09-06T13:18:52.689Z,80.83
2022-09-06T13:21:32.755Z,79.17
2022-09-06T13:24:03.917Z,78.10
2022-09-06T13:26:37.465Z,77.51
2022-09-06T13:29:23.273Z,77.58
2022-09-06T13:31:53.327Z,77.33
2022-09-06T13:34:23.151Z,77.23
2022-09-06T13:36:54.305Z,77.41
2022-09-06T13:39:35.867Z,77.65
2022-09-06T13:42:07.499Z,77.96
2022-09-06T13:44:36.363Z,77.77
2022-09-06T13:47:04.725Z,77.58
2022-09-06T13:49:33.769Z,77.42
2022-09-06T13:52:05.337Z,76.71
2022-09-06T13:54:33.895Z,76.31
2022-09-06T13:57:01.925Z,76.26
2022-09-06T13:59:31.452Z,75.97
2022-09-06T14:02:03.543Z,75.61
2022-09-06T14:04:31.914Z,74.48
2022-09-06T14:07:00.182Z,74.21
2022-09-06T14:09:29.746Z,73.48
2022-09-06T14:12:34.566Z,73.15
2022-09-06T14:15:02.754Z,72.84
2022-09-06T14:17:30.754Z,70.70
2022-09-06T14:19:58.702Z,71.28
2022-09-06T14:22:26.600Z,72.71
2022-09-06T14:24:55.840Z,73.03
2022-09-06T14:27:23.790Z,73.48
2022-09-06T14:29:51.806Z,73.30
2022-09-06T14:32:22.568Z,73.56
2022-09-06T14:34:50.643Z,73.57
2022-09-06T14:37:18.580Z,73.71
2022-09-06T14:40:27.127Z,73.18
2022-09-06T14:42:57.958Z,73.41
2022-09-06T14:45:25.876Z,73.34
2022-09-06T14:47:53.832Z,72.83
2022-09-06T14:50:21.748Z,72.36
2022-09-06T14:52:49.728Z,71.95
2022-09-06T14:55:17.706Z,70.95
2022-09-06T14:57:45.936Z,70.54
2022-09-06T15:00:16.109Z,69.58
2022-09-06T15:02:44.478Z,68.45
2022-09-06T15:05:12.421Z,68.00
2022-09-06T15:07:40.317Z,68.00
2022-09-06T15:10:08.753Z,67.98
2022-09-06T15:12:37.371Z,68.65
2022-09-06T15:15:06.340Z,68.63
2022-09-06T15:17:36.626Z,69.00
2022-09-06T15:20:05.838Z,69.37
2022-09-06T15:22:33.801Z,69.56
2022-09-06T15:25:01.723Z,69.51
2022-09-06T15:27:30.104Z,69.79
2022-09-06T15:29:57.972Z,70.13
2022-09-06T15:32:25.885Z,70.54
2022-09-06T15:34:55.194Z,71.07
2022-09-06T15:37:23.156Z,71.42
2022-09-06T15:39:51.104Z,72.17
2022-09-06T15:42:19.066Z,72.45
2022-09-06T15:44:46.944Z,72.94
2022-09-06T15:47:14.918Z,73.45
2022-09-06T15:49:43.006Z,73.68
2022-09-06T15:52:12.431Z,73.96
2022-09-06T15:54:57.985Z,73.80
2022-09-06T15:57:26.031Z,73.67
2022-09-06T15:59:53.956Z,74.25
2022-09-06T16:02:22.010Z,74.27
2022-09-06T16:04:50.018Z,74.68
2022-09-06T16:07:19.563Z,74.89
2022-09-06T16:09:47.467Z,75.14
2022-09-06T16:12:15.412Z,75.24
2022-09-06T16:14:43.329Z,75.39
2022-09-06T16:17:12.299Z,75.57
2022-09-06T16:19:40.841Z,75.70
2022-09-06T16:22:08.712Z,75.61
2022-09-06T16:24:39.138Z,75.49
2022-09-06T16:27:07.154Z,75.45
2022-09-06T16:29:36.180Z,75.27
2022-09-06T16:32:04.560Z,75.29
2022-09-06T16:34:32.480Z,75.59
2022-09-06T16:37:00.618Z,75.63
2022-09-06T16:39:28.520Z,75.92
2022-09-06T16:41:57.775Z,75.92
2022-09-06T16:44:26.117Z,75.77
2022-09-06T16:46:55.952Z,75.96
2022-09-06T16:49:24.434Z,76.25
2022-09-06T16:51:52.436Z,76.24
2022-09-06T16:54:21.872Z,76.02
2022-09-06T16:56:49.767Z,76.21
2022-09-06T16:59:19.178Z,76.33
2022-09-06T17:01:47.403Z,76.32
2022-09-06T17:04:15.885Z,76.17
2022-09-06T17:06:45.613Z,76.27
2022-09-06T17:09:14.997Z,76.42
2022-09-06T17:11:43.075Z,76.60
2022-09-06T17:14:11.052Z,76.83
2022-09-06T17:16:57.969Z,77.01
2022-09-06T17:19:26.493Z,77.07
2022-09-06T17:21:54.396Z,77.29
2022-09-06T17:24:22.567Z,77.35
2022-09-06T17:26:50.721Z,77.68
2022-09-06T17:29:18.744Z,77.97
2022-09-06T17:31:49.522Z,78.35
2022-09-06T17:34:17.796Z,78.62
2022-09-06T17:36:45.877Z,79.55
2022-09-06T17:39:15.866Z,80.14
2022-09-06T17:41:46.749Z,80.79
2022-09-06T17:44:16.913Z,81.29
2022-09-06T17:47:02.831Z,81.80
2022-09-06T17:49:34.979Z,82.09
2022-09-06T17:52:03.244Z,82.16
2022-09-06T17:54:31.736Z,82.23
2022-09-06T17:56:59.708Z,82.46
2022-09-06T17:59:31.588Z,82.58
2022-09-06T18:02:02.293Z,82.89
2022-09-06T18:04:30.227Z,82.23
2022-09-06T18:06:59.559Z,82.48
2022-09-06T18:09:27.503Z,82.58
2022-09-06T18:11:55.462Z,82.44
2022-09-06T18:14:23.386Z,82.36
2022-09-06T18:16:52.982Z,82.30
2022-09-06T18:19:22.274Z,82.49
2022-09-06T18:21:50.817Z,82.47
2022-09-06T18:24:20.268Z,82.54
2022-09-06T18:26:49.062Z,82.76
2022-09-06T18:29:18.388Z,82.72
2022-09-06T18:31:46.384Z,82.33
2022-09-06T18:34:15.933Z,82.10
2022-09-06T18:36:43.958Z,82.82
2022-09-06T18:39:13.143Z,83.19
2022-09-06T18:41:59.717Z,83.74
2022-09-06T18:44:31.884Z,84.67
2022-09-06T18:47:01.994Z,85.00
2022-09-06T18:49:30.772Z,85.09
2022-09-06T18:51:58.816Z,85.45
2022-09-06T18:54:26.738Z,85.04
2022-09-06T18:56:56.060Z,84.85
2022-09-06T18:59:24.050Z,84.91
2022-09-06T19:01:52.136Z,84.34
2022-09-06T19:04:20.873Z,84.04
2022-09-06T19:06:48.811Z,84.27
2022-09-06T19:09:17.887Z,84.20
2022-09-06T19:11:49.268Z,84.24
2022-09-06T19:14:19.442Z,83.75
2022-09-06T19:16:48.610Z,83.41
2022-09-06T19:19:16.601Z,83.06
2022-09-06T19:21:44.521Z,82.99
2022-09-06T19:24:14.554Z,82.85
2022-09-06T19:26:43.927Z,82.83
2022-09-06T19:29:14.507Z,82.98
2022-09-06T19:31:44.710Z,82.63
2022-09-06T19:34:15.211Z,82.66
2022-09-06T19:36:44.429Z,82.48
2022-09-06T19:39:15.316Z,82.28
2022-09-06T19:41:45.093Z,82.68
2022-09-06T19:44:14.283Z,83.04
2022-09-06T19:46:46.229Z,83.13
2022-09-06T19:49:15.568Z,83.49
2022-09-06T19:51:45.168Z,83.89
2022-09-06T19:54:15.304Z,84.07
2022-09-06T19:56:44.697Z,84.18
2022-09-06T19:59:13.886Z,84.74
2022-09-06T20:01:44.793Z,84.77
2022-09-06T20:04:14.436Z,85.04
2022-09-06T20:06:42.709Z,85.51
2022-09-06T20:09:11.595Z,85.42
2022-09-06T20:11:42.125Z,85.46
2022-09-06T20:14:11.034Z,85.21
2022-09-06T20:16:41.813Z,85.61
2022-09-06T20:19:13.074Z,85.80
2022-09-06T20:21:40.970Z,85.75
2022-09-06T20:24:09.010Z,85.13
2022-09-06T20:26:37.670Z,84.45
2022-09-06T20:29:06.746Z,83.99
2022-09-06T20:31:36.469Z,83.00
2022-09-06T20:34:05.661Z,82.81
2022-09-06T20:36:34.966Z,82.85
2022-09-06T20:39:03.171Z,83.28
2022-09-06T20:41:31.085Z,83.22
2022-09-06T20:44:00.371Z,82.87
2022-09-06T20:46:29.872Z,82.90
2022-09-06T20:48:59.763Z,82.81
2022-09-06T20:51:27.688Z,82.84
2022-09-06T20:53:58.170Z,82.45
2022-09-06T20:56:28.017Z,82.52
2022-09-06T20:58:57.430Z,82.14
2022-09-06T21:01:27.226Z,81.58
2022-09-06T21:03:56.936Z,81.75
2022-09-06T21:06:26.191Z,81.65
2022-09-06T21:08:54.434Z,81.60
2022-09-06T21:11:24.307Z,81.55
2022-09-06T21:13:53.786Z,81.56
2022-09-06T21:16:24.756Z,81.27
2022-09-06T21:18:53.693Z,81.13
2022-09-06T21:21:22.227Z,80.95
2022-09-06T21:23:50.445Z,80.96
2022-09-06T21:26:18.925Z,80.98
2022-09-06T21:28:48.677Z,80.19
2022-09-06T21:31:18.662Z,80.32
2022-09-06T21:33:48.194Z,80.77
2022-09-06T21:36:19.173Z,81.54
2022-09-06T21:38:48.474Z,81.53
2022-09-06T21:41:18.163Z,82.18
2022-09-06T21:43:48.276Z,82.10
2022-09-06T21:46:18.657Z,81.96
2022-09-06T21:48:48.153Z,82.16
2022-09-06T21:51:18.446Z,82.08
2022-09-06T21:53:49.269Z,82.31
2022-09-06T21:56:19.562Z,81.55
2022-09-06T21:58:51.343Z,81.31
2022-09-06T22:01:19.934Z,80.96
2022-09-06T22:03:48.221Z,80.38
2022-09-06T22:06:19.062Z,80.51
2022-09-06T22:08:47.660Z,80.08
2022-09-06T22:11:17.908Z,81.01
2022-09-06T22:13:46.732Z,81.17
2022-09-06T22:16:17.926Z,81.49
2022-09-06T22:18:46.705Z,81.66
2022-09-06T22:21:18.486Z,81.83
2022-09-06T22:23:50.941Z,81.19
2022-09-06T22:26:20.252Z,80.67
2022-09-06T22:28:48.554Z,81.03
2022-09-06T22:31:18.010Z,80.21
2022-09-06T22:33:45.970Z,80.95
2022-09-06T22:36:13.913Z,81.71
2022-09-06T22:38:41.864Z,81.91
2022-09-06T22:41:10.075Z,82.61
2022-09-06T22:43:38.133Z,82.75
2022-09-06T22:46:07.285Z,82.89
2022-09-06T22:48:37.143Z,82.14
2022-09-06T22:51:06.220Z,82.04
2022-09-06T22:53:34.985Z,82.03
2022-09-06T22:56:03.848Z,82.55
2022-09-06T22:58:31.892Z,81.90
2022-09-06T23:01:07.192Z,80.78
2022-09-06T23:03:36.758Z,81.30
2022-09-06T23:06:05.248Z,82.07
2022-09-06T23:08:34.657Z,82.47
2022-09-06T23:11:06.807Z,83.00
2022-09-06T23:13:34.837Z,82.97
2022-09-06T23:16:04.716Z,82.90
2022-09-06T23:18:32.823Z,83.41
2022-09-06T23:21:06.726Z,83.04
2022-09-06T23:23:35.336Z,82.38
2022-09-06T23:26:11.882Z,82.79
2022-09-06T23:28:40.247Z,82.53
2022-09-06T23:31:10.270Z,82.25
2022-09-06T23:33:38.377Z,82.26
2022-09-06T23:36:09.523Z,81.59
2022-09-06T23:38:39.556Z,82.22
2022-09-06T23:41:09.828Z,81.60
2022-09-06T23:43:38.190Z,81.30
2022-09-06T23:46:06.133Z,81.22
2022-09-06T23:48:34.174Z,81.89
2022-09-06T23:51:02.346Z,81.47
2022-09-06T23:53:31.841Z,81.69
2022-09-06T23:56:00.105Z,81.56
2022-09-06T23:58:28.513Z,81.26
